Time;durP1;ratioP1;P1;durP2;ratioP2;P2;SDS_P1;SDS_P2;PMS_P1;PMS_P2;Temp;Humidity;BMP_temperature;BMP_pressure;BME280_temperature;BME280_humidity;BME280_pressure;Samples;Min_cycle;Max_cycle;Signal;HPM_P1;HPM_P2
2023/11/21 00:00:16;;;;;;;58.23;29.30;;;8.60;99.90;;;;;;4989937;28;20026;-74
2023/11/21 00:02:45;;;;;;;47.72;28.33;;;8.50;99.90;;;;;;4990478;28;20026;-74
2023/11/21 00:05:13;;;;;;;61.80;32.83;;;8.40;99.90;;;;;;4989966;28;20484;-74
2023/11/21 00:07:40;;;;;;;63.63;34.42;;;8.40;99.90;;;;;;4990907;28;20404;-74
2023/11/21 00:10:08;;;;;;;60.33;32.80;;;8.30;99.90;;;;;;4991184;28;20061;-74
2023/11/21 00:12:37;;;;;;;60.20;33.47;;;8.20;99.90;;;;;;4991496;28;20687;-74
2023/11/21 00:15:05;;;;;;;63.92;32.92;;;8.20;99.90;;;;;;4991250;28;20081;-74
2023/11/21 00:17:30;;;;;;;58.10;32.47;;;8.20;99.90;;;;;;4990579;28;20566;-73
2023/11/21 00:19:56;;;;;;;56.87;33.13;;;8.20;99.90;;;;;;4991691;28;20030;-74
2023/11/21 00:22:22;;;;;;;59.17;34.03;;;8.20;99.90;;;;;;4991610;28;20026;-74
2023/11/21 00:24:47;;;;;;;64.13;32.43;;;8.30;99.90;;;;;;4992049;28;20030;-74
2023/11/21 00:27:14;;;;;;;60.13;32.10;;;8.30;99.90;;;;;;4989947;28;20483;-73
2023/11/21 00:29:40;;;;;;;58.72;33.03;;;8.40;99.90;;;;;;4991608;28;20542;-73
2023/11/21 00:32:06;;;;;;;55.92;31.33;;;8.40;99.90;;;;;;4990661;28;20467;-74
2023/11/21 00:34:32;;;;;;;57.47;30.40;;;8.40;99.90;;;;;;4991268;28;20030;-73
2023/11/21 00:36:58;;;;;;;53.53;29.02;;;8.40;99.90;;;;;;4990028;28;20037;-74
2023/11/21 00:39:25;;;;;;;53.75;29.55;;;8.40;99.90;;;;;;5007792;28;20053;-74
2023/11/21 00:41:51;;;;;;;57.05;31.27;;;8.40;99.90;;;;;;5009875;28;20040;-74
2023/11/21 00:44:17;;;;;;;55.03;31.08;;;8.30;99.90;;;;;;5010927;28;20026;-74
2023/11/21 00:46:43;;;;;;;58.23;29.97;;;8.30;99.90;;;;;;4990631;28;20732;-74
2023/11/21 00:49:08;;;;;;;56.57;29.90;;;8.20;99.90;;;;;;4990332;28;20074;-74
2023/11/21 00:51:34;;;;;;;53.10;29.70;;;8.20;99.90;;;;;;4991216;28;20058;-74
2023/11/21 00:54:01;;;;;;;50.28;28.35;;;8.10;99.90;;;;;;4990923;28;20033;-74
2023/11/21 00:56:26;;;;;;;56.10;29.42;;;8.10;99.90;;;;;;4990944;28;20026;-74
2023/11/21 00:58:52;;;;;;;45.10;27.77;;;8.00;99.90;;;;;;4990641;28;20037;-73
2023/11/21 01:01:22;;;;;;;49.33;27.65;;;7.90;99.90;;;;;;4990195;28;20033;-74
2023/11/21 01:03:48;;;;;;;45.97;26.27;;;7.80;99.90;;;;;;4985061;28;20168;-73
2023/11/21 01:06:14;;;;;;;66.30;29.40;;;7.70;99.90;;;;;;4971593;28;20503;-74
2023/11/21 01:08:40;;;;;;;44.97;26.88;;;7.70;99.90;;;;;;4971642;28;20390;-74
2023/11/21 01:11:08;;;;;;;52.47;29.37;;;7.70;99.90;;;;;;4986350;28;20030;-74
2023/11/21 01:13:35;;;;;;;54.22;29.55;;;7.60;99.90;;;;;;4986209;28;20507;-74
2023/11/21 01:16:01;;;;;;;55.78;30.02;;;7.50;99.90;;;;;;4970678;28;20154;-74
2023/11/21 01:18:27;;;;;;;51.63;27.83;;;7.50;99.90;;;;;;4970269;28;20503;-74
2023/11/21 01:20:53;;;;;;;46.50;28.73;;;7.40;99.90;;;;;;4988688;28;20269;-74
2023/11/21 01:23:19;;;;;;;53.65;27.98;;;7.40;99.90;;;;;;4994911;28;20034;-74
2023/11/21 01:25:45;;;;;;;53.20;28.17;;;7.40;99.90;;;;;;4994219;28;20303;-74
2023/11/21 01:28:10;;;;;;;55.20;30.20;;;7.40;99.90;;;;;;4994949;28;20110;-74
2023/11/21 01:30:37;;;;;;;48.77;27.63;;;7.50;99.90;;;;;;4994177;28;20034;-74
2023/11/21 01:33:03;;;;;;;50.22;25.80;;;7.60;99.90;;;;;;4994950;28;20647;-74
2023/11/21 01:35:30;;;;;;;51.90;27.15;;;7.60;99.90;;;;;;4994961;28;20042;-74
2023/11/21 01:37:55;;;;;;;48.20;24.98;;;7.50;99.90;;;;;;4994560;28;20038;-74
2023/11/21 01:40:21;;;;;;;50.87;25.77;;;7.40;99.90;;;;;;4977191;28;20357;-74
2023/11/21 01:42:48;;;;;;;46.47;25.23;;;7.30;99.90;;;;;;4974525;28;20035;-74
2023/11/21 01:45:14;;;;;;;;;;;7.40;99.90;;;;;;4975525;28;20027;-74
2023/11/21 01:47:41;;;;;;;46.50;24.85;;;7.30;99.90;;;;;;4985683;28;19906;-74
2023/11/21 01:50:08;;;;;;;47.58;24.73;;;7.30;99.90;;;;;;4994049;28;20504;-74
2023/11/21 01:52:37;;;;;;;43.75;23.63;;;7.20;99.90;;;;;;4994120;28;20117;-74
2023/11/21 01:55:06;;;;;;;43.65;22.90;;;7.20;99.90;;;;;;4994423;28;20527;-74
2023/11/21 01:57:31;;;;;;;39.58;21.38;;;7.30;99.90;;;;;;4994449;28;20037;-74
2023/11/21 02:00:00;;;;;;;39.53;19.63;;;7.30;99.90;;;;;;4993320;28;20513;-74
2023/11/21 02:02:26;;;;;;;36.38;19.10;;;7.30;99.90;;;;;;4993797;28;20026;-74
2023/11/21 02:04:52;;;;;;;46.10;19.83;;;7.30;99.90;;;;;;4993050;28;20061;-73
2023/11/21 02:07:19;;;;;;;33.97;19.30;;;7.40;99.90;;;;;;4988315;28;20026;-74
2023/11/21 02:09:45;;;;;;;38.22;19.85;;;7.50;99.90;;;;;;4993321;28;20033;-74
2023/11/21 02:12:10;;;;;;;39.20;20.30;;;7.50;99.90;;;;;;4993558;28;20034;-74
2023/11/21 02:14:36;;;;;;;29.53;18.10;;;7.50;99.90;;;;;;4993614;28;20030;-74
2023/11/21 02:17:04;;;;;;;30.40;18.00;;;7.60;99.90;;;;;;4974910;28;20041;-74
2023/11/21 02:19:30;;;;;;;39.50;20.40;;;7.70;99.90;;;;;;4974144;28;20062;-75
2023/11/21 02:22:06;;;;;;;29.02;17.02;;;7.70;99.90;;;;;;4974011;28;20019;-74
2023/11/21 02:24:32;;;;;;;31.42;17.88;;;7.70;99.90;;;;;;4972892;28;20452;-74
2023/11/21 02:26:58;;;;;;;37.28;18.33;;;7.70;99.90;;;;;;4974444;28;20138;-74
2023/11/21 02:29:27;;;;;;;35.47;17.58;;;7.70;99.90;;;;;;4974421;28;20127;-74
2023/11/21 02:31:54;;;;;;;32.70;20.65;;;7.80;99.90;;;;;;4983397;28;20034;-73
2023/11/21 02:34:21;;;;;;;43.13;22.15;;;7.80;99.90;;;;;;5013495;28;20033;-73
2023/11/21 02:36:51;;;;;;;43.42;21.70;;;7.80;99.90;;;;;;5011811;28;20026;-74
2023/11/21 02:39:17;;;;;;;40.45;20.25;;;7.90;99.90;;;;;;5012978;28;20113;-73
2023/11/21 02:41:44;;;;;;;31.80;17.15;;;7.70;99.90;;;;;;5012061;28;20026;-73
2023/11/21 02:44:10;;;;;;;34.20;18.70;;;7.80;99.90;;;;;;5006810;28;20041;-74
2023/11/21 02:46:36;;;;;;;31.10;18.88;;;7.80;99.90;;;;;;4993156;28;20023;-74
2023/11/21 02:49:10;;;;;;;30.33;15.73;;;7.90;99.90;;;;;;4991826;28;20129;-74
2023/11/21 02:51:36;;;;;;;28.40;15.32;;;7.80;99.90;;;;;;4992749;28;20025;-74
2023/11/21 02:54:05;;;;;;;28.70;15.57;;;7.70;99.90;;;;;;4993020;28;20034;-74
2023/11/21 02:56:30;;;;;;;25.08;13.88;;;7.60;99.90;;;;;;4991315;28;20030;-75
2023/11/21 02:58:57;;;;;;;29.50;16.90;;;7.50;99.90;;;;;;4993371;28;20403;-74
2023/11/21 03:01:24;;;;;;;28.70;14.43;;;7.70;99.90;;;;;;4993359;28;20026;-74
2023/11/21 03:03:51;;;;;;;31.80;16.67;;;7.70;99.90;;;;;;4992772;28;20035;-74
2023/11/21 03:06:18;;;;;;;22.65;14.32;;;7.70;99.90;;;;;;4991458;28;20108;-74
2023/11/21 03:08:43;;;;;;;25.48;15.07;;;7.80;99.90;;;;;;4992423;28;20153;-74
2023/11/21 03:11:09;;;;;;;29.97;16.57;;;7.90;99.90;;;;;;4992670;28;20113;-74
2023/11/21 03:13:34;;;;;;;31.93;16.13;;;7.90;99.90;;;;;;4992277;28;20089;-74
2023/11/21 03:16:00;;;;;;;29.37;15.77;;;7.90;99.90;;;;;;4992964;28;20500;-74
2023/11/21 03:18:26;;;;;;;28.93;15.40;;;8.00;99.90;;;;;;4992965;28;20026;-74
2023/11/21 03:20:55;;;;;;;29.97;16.37;;;8.00;99.90;;;;;;4992961;28;20034;-74
2023/11/21 03:23:20;;;;;;;31.90;16.65;;;8.00;99.90;;;;;;4992590;28;20042;-74
2023/11/21 03:25:46;;;;;;;24.25;15.02;;;8.00;99.90;;;;;;4992149;28;20033;-75
2023/11/21 03:28:12;;;;;;;28.80;15.30;;;8.00;99.90;;;;;;4992171;28;20432;-75
2023/11/21 03:30:38;;;;;;;31.83;17.17;;;8.10;99.90;;;;;;4992364;28;20018;-75
2023/11/21 03:33:04;;;;;;;28.40;15.73;;;7.90;99.90;;;;;;4992824;28;20096;-75
2023/11/21 03:35:29;;;;;;;36.47;15.97;;;7.90;99.90;;;;;;4994557;28;20026;-75
2023/11/21 03:37:56;;;;;;;29.63;16.73;;;7.90;99.90;;;;;;4993680;28;20034;-74
2023/11/21 03:40:21;;;;;;;25.38;15.27;;;7.80;99.90;;;;;;4993015;28;20023;-75
2023/11/21 03:42:47;;;;;;;27.93;17.10;;;7.80;99.90;;;;;;4991552;28;20451;-75
2023/11/21 03:45:14;;;;;;;35.87;17.63;;;7.90;99.90;;;;;;4992236;28;20028;-75
2023/11/21 03:47:43;;;;;;;32.78;17.35;;;7.90;99.90;;;;;;4992101;28;20022;-75
2023/11/21 03:50:09;;;;;;;37.42;17.85;;;7.90;99.90;;;;;;4991788;28;20030;-76
2023/11/21 03:52:35;;;;;;;33.17;17.90;;;7.80;99.90;;;;;;4992065;28;20042;-76
2023/11/21 03:55:01;;;;;;;34.38;17.23;;;7.80;99.90;;;;;;4990225;28;20050;-75
2023/11/21 03:57:27;;;;;;;33.00;16.98;;;7.80;99.90;;;;;;4992412;28;20461;-75
2023/11/21 03:59:53;;;;;;;30.80;16.20;;;7.80;99.90;;;;;;4991979;28;20472;-75
2023/11/21 04:02:19;;;;;;;30.70;17.17;;;7.80;99.90;;;;;;4991378;28;20034;-75
2023/11/21 04:04:44;;;;;;;29.00;16.90;;;7.70;99.90;;;;;;4991347;28;20447;-75
2023/11/21 04:07:10;;;;;;;35.80;19.87;;;7.60;99.90;;;;;;4991151;28;20026;-75
2023/11/21 04:09:36;;;;;;;32.55;18.23;;;7.60;99.90;;;;;;4990317;28;20385;-76
2023/11/21 04:12:02;;;;;;;31.73;18.97;;;7.60;99.90;;;;;;4992014;28;20049;-76
2023/11/21 04:14:28;;;;;;;37.28;18.13;;;7.60;99.90;;;;;;4991744;28;20298;-75
2023/11/21 04:16:54;;;;;;;39.00;17.35;;;7.60;99.90;;;;;;4991530;28;20448;-75
2023/11/21 04:19:20;;;;;;;26.38;15.48;;;7.60;99.90;;;;;;4991585;28;20502;-75
2023/11/21 04:21:46;;;;;;;29.88;15.80;;;7.60;99.90;;;;;;4990907;28;20034;-76
2023/11/21 04:24:11;;;;;;;28.93;16.90;;;7.60;99.90;;;;;;4991152;28;20480;-73
2023/11/21 04:26:37;;;;;;;21.87;13.57;;;7.60;99.90;;;;;;4998695;28;20032;-78
2023/11/21 04:29:04;;;;;;;30.77;15.17;;;7.50;99.90;;;;;;5010583;28;20029;-79
2023/11/21 04:31:30;;;;;;;28.10;14.07;;;7.50;99.90;;;;;;5011085;28;20287;-80
2023/11/21 04:33:56;;;;;;;27.02;14.68;;;7.60;99.90;;;;;;5011465;28;20029;-80
2023/11/21 04:36:21;;;;;;;30.07;15.07;;;7.60;99.90;;;;;;5011327;28;20030;-80
2023/11/21 04:38:47;;;;;;;31.47;15.30;;;7.80;99.90;;;;;;5010967;28;20380;-80
2023/11/21 04:41:13;;;;;;;30.00;16.57;;;7.70;99.90;;;;;;5009995;28;20164;-79
2023/11/21 04:43:38;;;;;;;24.00;13.80;;;7.60;99.90;;;;;;5010801;28;20065;-80
2023/11/21 04:46:04;;;;;;;28.07;14.87;;;7.70;99.90;;;;;;5011198;28;20277;-79
2023/11/21 04:48:30;;;;;;;26.13;14.57;;;7.70;99.90;;;;;;4993189;28;20492;-81
2023/11/21 04:50:56;;;;;;;28.27;14.55;;;7.70;99.90;;;;;;4991279;28;20022;-81
2023/11/21 04:53:21;;;;;;;24.43;13.70;;;7.60;99.90;;;;;;4990994;28;21646;-80
2023/11/21 04:55:48;;;;;;;29.67;14.17;;;7.60;99.90;;;;;;4988882;28;20037;-81
2023/11/21 04:58:14;;;;;;;28.60;14.32;;;7.70;99.90;;;;;;4990756;28;20030;-80
2023/11/21 05:00:39;;;;;;;30.97;15.53;;;7.70;99.90;;;;;;4990862;28;20511;-80
2023/11/21 05:03:07;;;;;;;32.33;15.40;;;7.80;99.90;;;;;;4991612;28;20073;-81
2023/11/21 05:05:33;;;;;;;29.42;15.52;;;7.80;99.90;;;;;;4991715;28;20026;-81
2023/11/21 05:07:59;;;;;;;27.65;14.00;;;7.80;99.90;;;;;;4988804;28;20042;-80
2023/11/21 05:10:25;;;;;;;27.70;13.38;;;7.70;99.90;;;;;;4990657;28;20040;-80
2023/11/21 05:12:51;;;;;;;19.83;13.10;;;7.80;99.90;;;;;;4990844;28;20038;-81
2023/11/21 05:15:17;;;;;;;32.13;13.67;;;7.80;99.90;;;;;;4990470;28;20018;-80
2023/11/21 05:17:44;;;;;;;24.73;12.93;;;7.80;99.90;;;;;;4990433;28;20149;-73
2023/11/21 05:20:11;;;;;;;27.27;12.10;;;7.80;99.90;;;;;;4985633;28;20031;-78
2023/11/21 05:22:37;;;;;;;26.27;12.57;;;7.90;99.90;;;;;;4984769;28;20033;-79
2023/11/21 05:25:04;;;;;;;24.70;12.05;;;7.90;99.90;;;;;;4991783;28;20432;-79
2023/11/21 05:27:31;;;;;;;;;;;7.80;99.90;;;;;;4990590;28;20177;-79
2023/11/21 05:29:57;;;;;;;23.63;12.20;;;7.90;99.90;;;;;;4984247;28;19936;-81
2023/11/21 05:32:24;;;;;;;24.67;12.73;;;7.90;99.90;;;;;;4979249;28;20518;-79
2023/11/21 05:34:49;;;;;;;28.13;11.30;;;7.80;99.90;;;;;;4994171;28;20482;-79
2023/11/21 05:37:15;;;;;;;20.30;11.87;;;7.80;99.90;;;;;;4984089;28;20058;-81
2023/11/21 05:39:41;;;;;;;16.90;10.33;;;7.80;99.90;;;;;;4985863;28;20038;-79
2023/11/21 05:42:08;;;;;;;21.20;10.30;;;7.80;99.90;;;;;;5006716;28;20041;-77
2023/11/21 05:44:34;;;;;;;26.67;10.55;;;7.80;99.90;;;;;;4993831;28;20328;-81
2023/11/21 05:47:01;;;;;;;20.52;10.98;;;7.80;99.90;;;;;;4995290;28;20033;-80
2023/11/21 05:49:26;;;;;;;21.52;10.93;;;7.90;99.90;;;;;;4989658;28;20037;-80
2023/11/21 05:51:54;;;;;;;25.63;9.67;;;7.80;99.90;;;;;;4986063;28;20034;-78
2023/11/21 05:54:19;;;;;;;29.45;12.02;;;7.90;99.90;;;;;;4980923;28;20031;-79
2023/11/21 05:56:46;;;;;;;25.65;11.38;;;7.90;99.90;;;;;;4985912;28;20033;-80
2023/11/21 05:59:12;;;;;;;26.50;11.43;;;7.90;99.90;;;;;;4991054;28;20094;-80
2023/11/21 06:01:38;;;;;;;21.73;11.25;;;8.00;99.90;;;;;;4993973;28;20034;-80
2023/11/21 06:04:05;;;;;;;27.67;10.73;;;7.90;99.90;;;;;;4984858;28;20042;-80
2023/11/21 06:06:31;;;;;;;;;;;7.90;99.90;;;;;;4987212;28;20156;-81
2023/11/21 06:08:57;;;;;;;22.17;10.70;;;8.00;99.90;;;;;;4991781;28;19992;-80
2023/11/21 06:11:24;;;;;;;18.98;10.00;;;8.00;99.90;;;;;;4989828;28;20046;-80
2023/11/21 06:13:50;;;;;;;28.00;11.05;;;8.00;99.90;;;;;;4990811;28;20398;-80
2023/11/21 06:16:18;;;;;;;23.17;11.35;;;8.00;99.90;;;;;;4992157;28;20038;-80
2023/11/21 06:18:44;;;;;;;26.65;10.45;;;8.00;99.90;;;;;;4997270;28;20030;-81
2023/11/21 06:21:10;;;;;;;21.25;9.77;;;8.00;99.90;;;;;;4991958;28;20022;-81
2023/11/21 06:23:36;;;;;;;21.70;9.27;;;8.00;99.90;;;;;;5008518;28;20038;-82
2023/11/21 06:26:01;;;;;;;14.43;9.33;;;8.00;99.90;;;;;;4994755;28;20074;-81
2023/11/21 06:28:27;;;;;;;21.83;9.07;;;8.00;99.90;;;;;;4987118;28;20034;-78
2023/11/21 06:30:53;;;;;;;20.50;8.70;;;8.10;99.90;;;;;;4995817;28;20125;-81
2023/11/21 06:33:19;;;;;;;22.07;8.80;;;8.10;99.90;;;;;;4988311;28;20294;-81
2023/11/21 06:35:45;;;;;;;20.40;9.45;;;8.10;99.90;;;;;;4990868;28;20392;-81
2023/11/21 06:38:10;;;;;;;20.25;9.93;;;8.10;99.90;;;;;;4992185;28;20047;-81
2023/11/21 06:40:36;;;;;;;16.53;8.67;;;8.10;99.90;;;;;;4993825;28;20030;-82
2023/11/21 06:43:02;;;;;;;19.42;10.40;;;8.10;99.90;;;;;;4994280;28;20308;-82
2023/11/21 06:45:27;;;;;;;26.10;10.23;;;8.10;99.90;;;;;;4994104;28;20035;-81
2023/11/21 06:47:53;;;;;;;23.57;10.37;;;8.10;99.90;;;;;;5016152;28;20793;-81
2023/11/21 06:50:20;;;;;;;16.93;9.63;;;8.10;99.90;;;;;;4994862;28;20042;-82
2023/11/21 06:52:46;;;;;;;21.20;9.90;;;8.10;99.90;;;;;;4990385;28;20034;-81
2023/11/21 06:55:12;;;;;;;24.92;9.35;;;8.10;99.90;;;;;;5003203;28;20030;-82
2023/11/21 06:57:38;;;;;;;24.58;11.05;;;8.10;99.90;;;;;;4995599;28;20385;-82
2023/11/21 07:00:04;;;;;;;20.48;9.93;;;8.10;99.90;;;;;;4994175;28;20615;-82
2023/11/21 07:02:30;;;;;;;21.50;9.50;;;8.10;99.90;;;;;;4991921;28;20041;-82
2023/11/21 07:04:56;;;;;;;16.47;9.63;;;8.10;99.90;;;;;;4989877;28;20473;-81
2023/11/21 07:07:22;;;;;;;23.80;9.93;;;8.20;99.90;;;;;;4993886;28;20090;-81
2023/11/21 07:09:48;;;;;;;21.75;9.60;;;8.20;99.90;;;;;;4989417;28;20027;-82
2023/11/21 07:12:14;;;;;;;21.27;10.43;;;8.20;99.90;;;;;;4991521;28;20050;-80
2023/11/21 07:14:43;;;;;;;18.17;10.30;;;8.30;99.90;;;;;;4986317;28;20041;-81
2023/11/21 07:17:08;;;;;;;21.67;10.75;;;8.20;99.90;;;;;;4993974;28;20029;-80
2023/11/21 07:19:35;;;;;;;21.60;10.05;;;8.30;99.90;;;;;;5010912;28;20020;-77
2023/11/21 07:22:01;;;;;;;23.65;9.88;;;8.30;99.90;;;;;;4987905;28;20117;-71
2023/11/21 07:24:27;;;;;;;19.52;10.30;;;8.30;99.90;;;;;;4986916;28;20050;-71
2023/11/21 07:26:56;;;;;;;20.40;10.23;;;8.30;99.90;;;;;;4990308;28;20046;-72
2023/11/21 07:29:25;;;;;;;15.02;9.07;;;8.40;99.90;;;;;;4995995;28;20031;-72
2023/11/21 07:31:51;;;;;;;18.52;10.13;;;8.30;99.90;;;;;;4994171;28;20033;-71
2023/11/21 07:34:17;;;;;;;18.70;9.82;;;8.40;99.90;;;;;;4994632;28;20045;-71
2023/11/21 07:36:42;;;;;;;17.03;8.23;;;8.40;99.90;;;;;;4996373;28;20026;-71
2023/11/21 07:39:09;;;;;;;14.97;8.10;;;8.40;99.90;;;;;;4990210;28;20042;-71
2023/11/21 07:41:35;;;;;;;14.52;7.85;;;8.40;99.90;;;;;;4997679;28;20026;-71
2023/11/21 07:44:00;;;;;;;18.13;8.47;;;8.40;99.90;;;;;;4988441;28;20570;-70
2023/11/21 07:46:27;;;;;;;17.37;8.60;;;8.40;99.90;;;;;;4989530;28;20165;-69
2023/11/21 07:48:53;;;;;;;21.40;9.25;;;8.40;99.90;;;;;;4989476;28;20109;-69
2023/11/21 07:51:18;;;;;;;18.75;9.10;;;8.50;99.90;;;;;;4986487;28;20556;-68
2023/11/21 07:53:44;;;;;;;21.60;9.00;;;8.50;99.90;;;;;;4985731;28;20045;-67
2023/11/21 07:56:10;;;;;;;20.63;9.40;;;8.50;99.90;;;;;;4990855;28;20022;-68
2023/11/21 07:58:36;;;;;;;20.85;10.27;;;8.50;99.90;;;;;;4993587;28;20717;-68
2023/11/21 08:01:03;;;;;;;27.13;10.25;;;8.60;99.90;;;;;;4990557;28;20043;-79
2023/11/21 08:03:31;;;;;;;;;;;8.60;99.90;;;;;;4994450;28;20033;-76
2023/11/21 08:05:58;;;;;;;20.63;10.13;;;8.60;99.90;;;;;;4993320;28;19964;-75
2023/11/21 08:08:24;;;;;;;19.67;10.25;;;8.60;99.90;;;;;;4989388;28;20046;-78
2023/11/21 08:10:56;;;;;;;19.95;9.73;;;8.60;99.90;;;;;;4985700;28;20082;-78
2023/11/21 08:13:26;;;;;;;20.48;10.30;;;8.60;99.90;;;;;;4995948;28;20109;-76
2023/11/21 08:15:54;;;;;;;21.25;10.68;;;8.70;99.90;;;;;;4992509;28;20037;-79
2023/11/21 08:18:20;;;;;;;22.63;10.00;;;8.70;99.90;;;;;;4995663;28;20057;-79
2023/11/21 08:20:49;;;;;;;17.35;10.00;;;8.80;99.90;;;;;;4992033;28;20029;-79
2023/11/21 08:23:16;;;;;;;15.75;9.52;;;9.10;99.90;;;;;;4989014;28;20038;-79
2023/11/21 08:25:46;;;;;;;12.27;7.15;;;9.30;99.90;;;;;;4992398;28;20064;-76
2023/11/21 08:28:14;;;;;;;16.83;7.85;;;9.40;99.90;;;;;;4991908;28;20084;-82
2023/11/21 08:30:41;;;;;;;14.75;8.00;;;9.30;99.90;;;;;;4992282;28;20076;-78
2023/11/21 08:33:11;;;;;;;13.27;7.53;;;9.30;99.90;;;;;;5008744;28;21350;-80
2023/11/21 08:35:38;;;;;;;15.32;9.23;;;9.30;99.90;;;;;;4987621;28;20396;-82
2023/11/21 08:38:05;;;;;;;16.42;8.85;;;9.20;99.90;;;;;;4989545;28;20145;-82
2023/11/21 08:40:31;;;;;;;17.17;10.20;;;9.30;99.90;;;;;;4985398;28;20488;-81
2023/11/21 08:42:58;;;;;;;21.38;12.68;;;9.30;99.90;;;;;;4994631;28;20030;-84
2023/11/21 08:45:26;;;;;;;22.50;12.35;;;9.30;99.90;;;;;;4985087;28;20089;-80
2023/11/21 08:47:53;;;;;;;22.13;12.18;;;9.40;99.90;;;;;;4990042;28;20121;-74
2023/11/21 08:50:19;;;;;;;23.92;13.98;;;9.40;99.90;;;;;;4983736;28;20113;-73
2023/11/21 08:52:45;;;;;;;21.60;12.93;;;9.40;99.90;;;;;;4994242;28;20043;-74
2023/11/21 08:55:12;;;;;;;19.55;11.32;;;9.40;99.90;;;;;;4990086;28;20031;-75
2023/11/21 08:57:42;;;;;;;15.07;8.98;;;9.40;99.90;;;;;;4988507;28;20093;-73
2023/11/21 09:00:11;;;;;;;12.05;8.48;;;9.50;99.90;;;;;;4987635;28;20034;-72
2023/11/21 09:02:41;;;;;;;17.17;10.15;;;9.40;99.90;;;;;;4990688;28;20022;-72
2023/11/21 09:05:11;;;;;;;14.20;8.50;;;9.50;99.90;;;;;;4987268;28;20023;-72
2023/11/21 09:07:38;;;;;;;17.77;8.23;;;9.50;99.90;;;;;;4986162;28;20041;-72
2023/11/21 09:10:07;;;;;;;14.65;7.47;;;9.50;99.90;;;;;;4982750;28;20039;-72
2023/11/21 09:12:37;;;;;;;11.68;7.00;;;9.50;99.90;;;;;;4987432;28;20071;-72
2023/11/21 09:15:07;;;;;;;11.05;6.05;;;9.40;99.90;;;;;;4982308;28;20037;-73
2023/11/21 09:17:34;;;;;;;9.25;4.43;;;9.40;99.90;;;;;;4986033;28;20035;-73
2023/11/21 09:20:00;;;;;;;7.05;4.45;;;9.50;99.90;;;;;;4990780;28;20030;-72
2023/11/21 09:22:27;;;;;;;8.50;4.35;;;9.50;99.90;;;;;;4987567;28;20711;-72
2023/11/21 09:24:52;;;;;;;8.73;4.65;;;9.60;99.90;;;;;;4990546;28;20503;-73
2023/11/21 09:27:19;;;;;;;9.10;4.43;;;9.60;99.90;;;;;;4990783;28;20019;-72
2023/11/21 09:29:47;;;;;;;7.22;4.03;;;9.60;99.90;;;;;;4988115;28;20030;-73
2023/11/21 09:32:16;;;;;;;7.43;3.55;;;9.60;99.90;;;;;;4989373;28;20098;-73
2023/11/21 09:34:42;;;;;;;6.35;3.75;;;9.60;99.90;;;;;;4984185;28;20503;-73
2023/11/21 09:37:08;;;;;;;9.18;4.25;;;9.60;99.90;;;;;;4988685;28;20026;-76
2023/11/21 09:39:34;;;;;;;8.90;4.03;;;9.50;99.90;;;;;;4988559;28;20058;-73
2023/11/21 09:42:25;;;;;;;9.40;3.50;;;9.70;99.90;;;;;;4989688;28;20038;-74
2023/11/21 09:45:17;;;;;;;5.80;3.45;;;9.80;99.90;;;;;;4990647;28;20118;-72
2023/11/21 09:47:44;;;;;;;8.65;3.45;;;9.90;99.90;;;;;;4988863;28;20494;-72
2023/11/21 09:50:11;;;;;;;12.65;3.80;;;9.90;99.90;;;;;;4989772;28;20050;-72
2023/11/21 09:53:15;;;;;;;5.03;3.17;;;9.90;99.90;;;;;;5002033;28;20043;-75
2023/11/21 09:55:43;;;;;;;6.95;3.53;;;9.90;99.90;;;;;;5008135;28;20077;-77
2023/11/21 09:58:12;;;;;;;4.95;2.70;;;10.00;99.90;;;;;;4996660;28;20069;-75
2023/11/21 10:00:44;;;;;;;3.97;2.20;;;10.00;99.90;;;;;;4992553;28;20869;-77
2023/11/21 10:03:11;;;;;;;3.35;2.42;;;9.90;99.90;;;;;;4990633;28;20061;-76
2023/11/21 10:05:37;;;;;;;3.90;2.85;;;9.90;99.90;;;;;;4995936;28;20030;-77
2023/11/21 10:08:13;;;;;;;5.70;3.00;;;9.90;99.90;;;;;;4990140;28;20046;-78
2023/11/21 10:10:50;;;;;;;7.80;3.85;;;9.70;99.90;;;;;;4989213;28;20050;-77
2023/11/21 10:13:17;;;;;;;9.25;4.65;;;9.70;99.90;;;;;;4990069;28;20041;-76
2023/11/21 10:15:48;;;;;;;7.75;4.97;;;9.70;99.90;;;;;;4987094;28;20098;-77
2023/11/21 10:18:15;;;;;;;11.90;4.95;;;9.60;99.90;;;;;;4988530;28;20452;-75
2023/11/21 10:20:41;;;;;;;9.57;5.07;;;9.50;99.90;;;;;;4989395;28;20121;-76
2023/11/21 10:23:11;;;;;;;13.65;5.63;;;9.60;99.90;;;;;;4989778;28;20543;-77
2023/11/21 10:25:37;;;;;;;7.05;4.80;;;9.60;99.90;;;;;;4992137;28;20028;-77
2023/11/21 10:28:07;;;;;;;6.75;4.20;;;9.70;99.90;;;;;;4991406;28;20049;-76
2023/11/21 10:30:36;;;;;;;6.63;3.90;;;9.80;99.90;;;;;;4989296;28;20428;-77
2023/11/21 10:33:03;;;;;;;5.80;3.53;;;9.70;99.90;;;;;;4991747;28;20041;-76
2023/11/21 10:35:41;;;;;;;8.60;4.25;;;9.70;99.90;;;;;;4987785;28;20037;-77
2023/11/21 10:38:09;;;;;;;10.35;3.55;;;9.60;99.90;;;;;;5000289;28;20038;-77
2023/11/21 10:40:39;;;;;;;6.90;3.47;;;9.60;99.90;;;;;;4985965;28;20026;-77
2023/11/21 10:43:09;;;;;;;5.10;3.20;;;9.60;99.90;;;;;;4988961;28;20030;-76
2023/11/21 10:45:38;;;;;;;4.97;3.10;;;9.60;99.90;;;;;;4992083;28;20054;-76
2023/11/21 10:48:16;;;;;;;4.57;3.22;;;9.70;99.90;;;;;;4992197;28;20038;-76
2023/11/21 10:50:46;;;;;;;7.35;3.38;;;9.70;99.90;;;;;;5009012;28;20033;-77
2023/11/21 10:53:12;;;;;;;3.28;2.97;;;9.70;99.90;;;;;;4991395;28;20067;-78
2023/11/21 10:55:39;;;;;;;5.10;3.58;;;9.70;99.90;;;;;;4995843;28;20037;-78
2023/11/21 10:58:05;;;;;;;3.63;3.20;;;9.60;99.90;;;;;;4990397;28;20138;-77
2023/11/21 11:00:33;;;;;;;7.80;5.03;;;9.70;99.90;;;;;;4993203;28;20037;-78
2023/11/21 11:03:00;;;;;;;6.13;4.03;;;9.80;99.90;;;;;;4989706;28;20620;-77
2023/11/21 11:05:28;;;;;;;12.68;4.20;;;9.70;99.90;;;;;;4992680;28;20041;-77
2023/11/21 11:08:05;;;;;;;9.25;4.50;;;9.90;99.90;;;;;;4991860;28;20558;-77
2023/11/21 11:10:32;;;;;;;12.85;4.32;;;9.90;99.90;;;;;;4990842;28;20104;-77
2023/11/21 11:12:58;;;;;;;8.35;4.07;;;9.90;99.90;;;;;;4986558;28;20045;-78
2023/11/21 11:15:28;;;;;;;5.63;3.75;;;9.90;99.90;;;;;;5006109;28;20031;-77
2023/11/21 11:17:57;;;;;;;6.50;4.18;;;9.80;99.90;;;;;;4995185;28;20030;-77
2023/11/21 11:20:30;;;;;;;7.28;4.05;;;9.90;99.90;;;;;;4993697;28;20376;-76
2023/11/21 11:23:19;;;;;;;9.13;3.28;;;10.10;99.90;;;;;;4990798;28;20624;-76
2023/11/21 11:26:07;;;;;;;7.90;3.40;;;10.10;99.90;;;;;;4982912;28;20097;-80
2023/11/21 11:28:38;;;;;;;;;;;10.00;99.90;;;;;;4993021;28;20030;-80
2023/11/21 11:31:38;;;;;;;7.03;2.97;;;10.10;99.90;;;;;;4988837;28;19914;-80
2023/11/21 11:34:54;;;;;;;4.78;3.08;;;10.00;99.90;;;;;;5001908;28;20039;-79
2023/11/21 11:37:22;;;;;;;4.45;3.20;;;10.00;99.90;;;;;;4995700;28;20046;-79
2023/11/21 11:39:49;;;;;;;5.78;2.88;;;10.00;99.90;;;;;;4989697;28;20023;-80
2023/11/21 11:42:17;;;;;;;7.43;2.30;;;10.00;99.90;;;;;;4985843;28;20069;-79
2023/11/21 11:44:45;;;;;;;3.67;2.08;;;10.00;99.90;;;;;;4989407;28;20093;-79
2023/11/21 11:47:22;;;;;;;9.93;2.72;;;10.00;99.90;;;;;;4986652;28;20034;-80
2023/11/21 11:50:07;;;;;;;6.30;2.72;;;10.10;99.90;;;;;;4991747;28;20038;-79
2023/11/21 11:52:52;;;;;;;5.03;2.38;;;10.00;99.90;;;;;;4986093;28;20042;-79
2023/11/21 11:55:20;;;;;;;6.32;2.47;;;10.00;99.90;;;;;;4985468;28;20027;-76
2023/11/21 11:57:56;;;;;;;12.68;2.33;;;10.00;99.90;;;;;;4986674;28;20027;-72
2023/11/21 12:00:30;;;;;;;7.53;2.17;;;10.00;99.90;;;;;;4988806;28;20082;-76
2023/11/21 12:03:02;;;;;;;10.63;2.47;;;10.10;99.90;;;;;;4987372;28;20038;-77
2023/11/21 12:05:32;;;;;;;4.38;2.72;;;10.30;99.90;;;;;;4989459;28;20031;-78
2023/11/21 12:08:01;;;;;;;5.43;2.50;;;10.40;99.90;;;;;;4984061;28;20037;-81
2023/11/21 12:10:32;;;;;;;5.32;2.63;;;10.60;99.90;;;;;;4993587;28;22611;-80
2023/11/21 12:12:58;;;;;;;4.97;2.47;;;10.60;99.90;;;;;;4984616;28;20046;-80
2023/11/21 12:15:33;;;;;;;;;;;10.70;99.90;;;;;;4993514;28;20091;-80
2023/11/21 12:18:00;;;;;;;5.97;3.00;;;10.70;99.90;;;;;;4987854;28;19913;-79
2023/11/21 12:20:27;;;;;;;7.38;3.00;;;10.70;99.90;;;;;;4992229;28;20061;-80
2023/11/21 12:22:55;;;;;;;4.13;2.47;;;10.60;99.90;;;;;;4998589;28;20419;-79
2023/11/21 12:25:24;;;;;;;8.15;2.72;;;10.60;99.90;;;;;;5006148;28;20049;-79
2023/11/21 12:27:52;;;;;;;8.10;3.10;;;10.60;99.90;;;;;;4992085;28;20396;-80
2023/11/21 12:30:21;;;;;;;6.32;2.47;;;10.50;99.90;;;;;;4994096;28;20097;-79
2023/11/21 12:32:52;;;;;;;17.77;4.90;;;10.50;99.90;;;;;;4991850;28;20068;-77
2023/11/21 12:35:23;;;;;;;17.33;5.80;;;10.50;99.90;;;;;;4992056;28;20030;-80
2023/11/21 12:37:50;;;;;;;11.68;4.85;;;10.50;99.90;;;;;;4993143;28;20258;-80
2023/11/21 12:40:17;;;;;;;10.30;3.03;;;10.60;99.90;;;;;;4992918;28;20062;-80
2023/11/21 12:42:51;;;;;;;7.03;3.28;;;10.60;99.90;;;;;;4999949;28;20084;-80
2023/11/21 12:45:30;;;;;;;10.93;2.22;;;10.60;99.90;;;;;;5005464;28;20061;-79